Kezdőlap
METAR-TAF:

METAR-TAF

Repülőterek :

Kairói nemzetközi repülőtér

Kairó, Egyiptom

földrajzi szélesség: 30-08N, földrajzi hosszúság: 031-24E, magasság: 64 m

Jelenlegi meteorológiai megfigyelések

A jelentés 24 perccel ezelõtt készült, 16:00 UTC
Északi szél 12 kt
Hőmérséklet 35°C
Páratartalom 42%
Légköri nyomás 1006 hPa
Látótávolság 10 km, vagy több
felhőtlen 1500 m magasságban, és nincs gomolyfelhõ

METAR: HECA 181600Z 35012KT CAVOK 35/20 Q1006 NOSIG

Idő: 18:24 (16:24 UTC)

Előrejelzés

A jelentés 5 órával és 24 perccel ezelõtt készült, 11:00 UTC
Az előrejelzés 18-én 12 óra UTC és 19-én 18 óra UTC között érvényes
Északi szél 6 kt
Látótávolság 10 km, vagy több
felhőtlen 1500 m magasságban, és nincs gomolyfelhõ

TAF: HECA 181100Z 1812/1918 36006KT CAVOK

Meteorológiai megfigyelések és előrejelzések több, mint 4000 repülőtéren (METAR és TAF jelentéseket).

A térképen piros és sárga pontok jelzik az elérhető meteorológiai állomásokat.

Mozgassa az egeret a pont fölött, hogy megjelenjen az állomás neve.

Azután kattintson az időjárási megfigyelések és előrejelzések megtekintéséhez.

A térkép megváltoztatása: kattintson a fekete keresztel jelölt zöld gombra ráközelítéshez, a vonallal jelölt zöld gombra távolításhoz, vagy a zöld nyilakra a szomszédos térképek eléréséhez.


METAR-TAF: